San Brendan — WDE8388 — position and weather

sailwx.info

Track history (hours):
 
Tides and Currents Weather Stations Pressure Air Temp Water Temp Dewpoint Dewpoint Depression Visibility Wind Speed Wind Dir Waves Ship Positions

San Brendan

Owner: Buffalo Marine Service, Inc., Houston, TX. More information available from US FCC via Universal Licensing System and Coast Guard Vessel Documentation Center.

Last reported at 2018-Feb-22 16:57 UTC. Time now 2018-Feb-23 20:19 UTC.
Position N 29°32' W 094°29'.

Length 28 m; draft 3.3 m.

Type: Tug. MMSI: 367404910.

Date/timePositionNaut miles runAvg speedWind from/ knotsBaromVisibWave heightAir tempDewpointWater temp
2018-Feb-22 16:57N 29°32' W 094°29'3 2.7
2018-Feb-22 16:01N 29°34' W 094°27'1 7.8
2018-Feb-22 15:56N 29°34' W 094°26'2 5.2
2018-Feb-22 15:29N 29°36' W 094°24'3 5.3
2018-Feb-22 15:00N 29°37' W 094°22'0 0.0
2018-Feb-22 14:21N 29°37' W 094°22'0 0.0
2018-Feb-22 14:00N 29°37' W 094°22'0 0.0
2018-Feb-22 13:27N 29°37' W 094°22'0 0.0
2018-Feb-22 09:58N 29°37' W 094°22'0 0.0
2018-Feb-22 09:30N 29°37' W 094°22'0 0.0
2018-Feb-22 09:00N 29°37' W 094°22'0 0.0
2018-Feb-22 08:30N 29°37' W 094°22'0 0.0
2018-Feb-22 07:59N 29°37' W 094°22'0 0.0
2018-Feb-22 07:30N 29°37' W 094°22'0 0.0
2018-Feb-22 06:56N 29°37' W 094°22'0 0.0
2018-Feb-22 06:29N 29°37' W 094°22'0 0.0
2018-Feb-22 02:39N 29°37' W 094°22'0 0.1
2018-Feb-22 02:30N 29°37' W 094°22'0 0.0
2018-Feb-22 01:53N 29°37' W 094°22'0 0.0
2018-Feb-21 23:36N 29°37' W 094°22'0 0.0
2018-Feb-21 23:28N 29°37' W 094°22'0 0.0
2018-Feb-21 22:59N 29°37' W 094°22'1 1.2
2018-Feb-21 22:16N 29°37' W 094°21'0 0.0
2018-Feb-21 21:57N 29°37' W 094°21'0 0.1
2018-Feb-21 21:30N 29°37' W 094°21'0 0.0
2018-Feb-21 20:59N 29°37' W 094°21'0 0.0
2018-Feb-21 20:30N 29°37' W 094°21'0 0.0
2018-Feb-21 20:00N 29°37' W 094°21'0 0.0
2018-Feb-21 18:53N 29°37' W 094°21'0 0.0
2018-Feb-21 17:50N 29°37' W 094°21'0 0.1
2018-Feb-21 17:30N 29°37' W 094°21'1 1.9
2018-Feb-21 17:00N 29°37' W 094°20'3 4.9
2018-Feb-21 16:26N 29°39' W 094°17'1 3.4
2018-Feb-21 16:00N 29°39' W 094°15'3 5.7
2018-Feb-21 15:31N 29°41' W 094°12'3 5.8
2018-Feb-21 15:00N 29°42' W 094°09'1 1.7
2018-Feb-21 14:30N 29°42' W 094°08'3 5.1
2018-Feb-21 14:00N 29°44' W 094°06'3 5.4
2018-Feb-21 13:30N 29°45' W 094°04'2 4.9
2018-Feb-21 13:00N 29°47' W 094°02'3 5.3
2018-Feb-21 12:31N 29°49' W 093°60'1 1.2
2018-Feb-21 12:00N 29°49' W 093°59'0 0.0
2018-Feb-21 11:30N 29°49' W 093°59'0 0.0
2018-Feb-21 11:00N 29°49' W 093°59'0 0.0
2018-Feb-21 10:30N 29°49' W 093°59'0 0.0
2018-Feb-21 10:00N 29°49' W 093°59'0 0.0
2018-Feb-21 09:30N 29°49' W 093°59'0 0.0
2018-Feb-21 09:00N 29°49' W 093°59'0 0.0
2018-Feb-21 08:30N 29°49' W 093°59'0 0.0
2018-Feb-21 08:00N 29°49' W 093°59'0 0.0
2018-Feb-21 07:30N 29°49' W 093°59'0 0.0
2018-Feb-21 07:00N 29°49' W 093°59'0 0.0
2018-Feb-21 06:30N 29°49' W 093°59'0 0.0
2018-Feb-21 06:00N 29°49' W 093°59'0 0.0
2018-Feb-21 05:30N 29°49' W 093°59'0 0.0
2018-Feb-21 05:00N 29°49' W 093°59'0 0.0
2018-Feb-21 04:30N 29°49' W 093°59'0 0.0
2018-Feb-21 04:00N 29°49' W 093°59'0 0.0
2018-Feb-21 03:30N 29°49' W 093°59'0 0.4
2018-Feb-21 03:00N 29°49' W 093°59'2 5.0
2018-Feb-21 02:30N 29°51' W 093°57'4 7.3
2018-Feb-21 02:00N 29°54' W 093°54'4 7.1
2018-Feb-21 01:30N 29°57' W 093°52'3 5.9
2018-Feb-21 01:00N 29°59' W 093°49'3 6.6
2018-Feb-21 00:30N 30°00' W 093°46'3 6.3
2018-Feb-21 00:00N 30°03' W 093°44'2 4.2
2018-Feb-20 23:30N 30°04' W 093°41'3 6.1
2018-Feb-20 23:00N 30°04' W 093°38'4 7.0
2018-Feb-20 22:29N 30°04' W 093°34'4 7.2
2018-Feb-20 22:00N 30°04' W 093°30'3 7.0
2018-Feb-20 21:30N 30°04' W 093°26'3 5.9
2018-Feb-20 21:00N 30°04' W 093°22'3 5.1
2018-Feb-20 20:30N 30°05' W 093°20'2 4.9
2018-Feb-20 20:00N 30°08' W 093°20'2 4.9
2018-Feb-20 19:30N 30°10' W 093°19'0 0.4
2018-Feb-20 19:00N 30°10' W 093°19'3 6.6
2018-Feb-20 18:30N 30°06' W 093°20'2 4.4
2018-Feb-20 18:00N 30°04' W 093°21'1 1.7
2018-Feb-20 17:30N 30°04' W 093°21'2 4.8
2018-Feb-20 17:00N 30°04' W 093°24'3 6.1
2018-Feb-20 16:30N 30°04' W 093°28'3 6.9
2018-Feb-20 16:00N 30°04' W 093°32'4 7.0
2018-Feb-20 15:26N 30°04' W 093°36'4 7.3
2018-Feb-20 14:55N 30°04' W 093°40'3 7.2
2018-Feb-20 14:30N 30°03' W 093°44'4 7.2
2018-Feb-20 14:00N 29°60' W 093°46'4 7.3
2018-Feb-20 13:30N 29°59' W 093°50'2 3.8
2018-Feb-20 13:00N 29°57' W 093°52'0 0.0
2018-Feb-20 12:30N 29°57' W 093°52'0 0.0
2018-Feb-20 12:00N 29°57' W 093°52'0 0.0
2018-Feb-20 11:30N 29°57' W 093°52'0 0.0
2018-Feb-20 11:00N 29°57' W 093°52'0 0.0
2018-Feb-20 10:30N 29°57' W 093°52'0 0.0
2018-Feb-20 10:00N 29°57' W 093°52'0 0.0
2018-Feb-20 09:29N 29°57' W 093°52'0 0.0
2018-Feb-20 09:00N 29°57' W 093°52'0 0.0
2018-Feb-20 08:31N 29°57' W 093°52'0 0.0
2018-Feb-20 08:00N 29°57' W 093°52'0 0.0
2018-Feb-20 07:28N 29°57' W 093°52'0 0.0
2018-Feb-20 07:00N 29°57' W 093°52'0 0.0
2018-Feb-20 06:29N 29°57' W 093°52'2 3.8
2018-Feb-20 06:00N 29°56' W 093°53'4 7.8
2018-Feb-20 05:30N 29°53' W 093°55'3 6.7
2018-Feb-20 05:00N 29°50' W 093°57'2 4.6
2018-Feb-20 04:30N 29°49' W 093°60'3 5.0
2018-Feb-20 04:00N 29°47' W 094°02'2 4.3
2018-Feb-20 03:30N 29°45' W 094°04'2 4.4
2018-Feb-20 03:00N 29°44' W 094°06'2 4.4
2018-Feb-20 02:31N 29°43' W 094°08'2 4.6
2018-Feb-20 02:00N 29°41' W 094°10'2 4.9
2018-Feb-20 01:30N 29°41' W 094°12'3 5.3
2018-Feb-20 01:00N 29°39' W 094°15'2 4.7
2018-Feb-20 00:30N 29°38' W 094°17'3 6.2
2018-Feb-20 00:00N 29°37' W 094°21'3 6.0
2018-Feb-19 23:30N 29°36' W 094°24'9 5.6
2018-Feb-19 21:51N 29°30' W 094°32'0 0.0
2018-Feb-19 21:29N 29°30' W 094°32'2 1.3
2018-Feb-19 19:37N 29°29' W 094°35'0 0.0
2018-Feb-19 19:29N 29°29' W 094°35'0 0.0
2018-Feb-19 18:12N 29°29' W 094°35'0 0.0
2018-Feb-19 18:00N 29°29' W 094°35'1 1.9
2018-Feb-19 17:28N 29°29' W 094°36'0 0.0
2018-Feb-19 16:59N 29°29' W 094°36'0 0.0
2018-Feb-19 16:30N 29°29' W 094°36'1 2.0
2018-Feb-19 15:54N 29°29' W 094°37'1 2.1
2018-Feb-19 15:27N 29°28' W 094°38'0 0.0
2018-Feb-19 14:47N 29°28' W 094°38'0 1.5
2018-Feb-19 14:30N 29°28' W 094°39'3 6.1
2018-Feb-19 14:00N 29°27' W 094°42'3 5.4
2018-Feb-19 13:29N 29°25' W 094°44'3 6.2
2018-Feb-19 12:59N 29°23' W 094°47'3 7.1
2018-Feb-19 12:30N 29°19' W 094°47'0 0.1
2018-Feb-19 11:02N 29°19' W 094°47'0 0.0
2018-Feb-19 10:55N 29°19' W 094°47'0 0.0
2018-Feb-19 10:30N 29°19' W 094°47'0 0.0
2018-Feb-19 09:48N 29°19' W 094°47'0 0.0
2018-Feb-19 09:30N 29°19' W 094°47'0 0.0
2018-Feb-19 09:00N 29°19' W 094°47'0 0.2
2018-Feb-19 08:29N 29°19' W 094°47'0 0.0
2018-Feb-19 07:57N 29°19' W 094°47'0 0.0
2018-Feb-19 07:30N 29°19' W 094°47'0 0.0
2018-Feb-19 06:53N 29°19' W 094°47'0 0.0
2018-Feb-19 06:24N 29°19' W 094°47'0 0.0
2018-Feb-19 05:44N 29°19' W 094°47'0 0.0
2018-Feb-19 05:30N 29°19' W 094°47'0 0.0
2018-Feb-19 05:00N 29°19' W 094°47'6 0.7
2018-Feb-18 19:41N 29°22' W 094°53'6 5.3
2018-Feb-18 18:30N 29°20' W 094°47'1 1.3
2018-Feb-18 17:57N 29°19' W 094°47'0 0.0
2018-Feb-18 17:25N 29°19' W 094°47'0 0.0
2018-Feb-18 16:57N 29°19' W 094°47'0 0.0
2018-Feb-18 16:24N 29°19' W 094°47'0 0.0
2018-Feb-18 15:44N 29°19' W 094°47'0 0.0
2018-Feb-18 15:21N 29°19' W 094°47'0 0.0
2018-Feb-18 14:57N 29°19' W 094°47'0 0.0
2018-Feb-18 14:30N 29°19' W 094°47'0 0.0
2018-Feb-18 07:35N 29°19' W 094°47'0 0.0
2018-Feb-18 07:29N 29°19' W 094°47'0 0.0
2018-Feb-18 01:17N 29°19' W 094°47'1 1.7
2018-Feb-18 00:36N 29°20' W 094°47'1 7.7
2018-Feb-18 00:27N 29°21' W 094°47'8 6.0
2018-Feb-17 23:03N 29°27' W 094°41'0 2.5
2018-Feb-17 22:55N 29°27' W 094°40'1 2.3
2018-Feb-17 22:30N 29°28' W 094°39'1 2.3
2018-Feb-17 21:59N 29°28' W 094°38'10 3.3
2018-Feb-17 19:02N 29°33' W 094°28'3 0.8
2018-Feb-17 15:39N 29°34' W 094°25'1 4.2
2018-Feb-17 15:30N 29°35' W 094°25'2 4.5
2018-Feb-17 15:00N 29°36' W 094°23'0 0.0
2018-Feb-17 14:30N 29°36' W 094°23'0 0.0
2018-Feb-17 14:00N 29°36' W 094°23'0 0.0
2018-Feb-17 13:29N 29°36' W 094°23'0 0.0
2018-Feb-17 12:59N 29°36' W 094°23'0 0.1
2018-Feb-17 12:07N 29°36' W 094°23'0 0.0
2018-Feb-17 11:57N 29°36' W 094°23'0 0.0
2018-Feb-17 11:30N 29°36' W 094°23'0 0.0
2018-Feb-17 11:00N 29°36' W 094°23'0 0.0
2018-Feb-17 10:26N 29°36' W 094°23'0 0.0
2018-Feb-17 10:00N 29°36' W 094°23'0 0.0
2018-Feb-17 09:30N 29°36' W 094°23'0 0.0
2018-Feb-17 09:00N 29°36' W 094°23'0 0.0
2018-Feb-17 08:30N 29°36' W 094°23'0 0.0
2018-Feb-17 07:59N 29°36' W 094°23'0 0.0
2018-Feb-17 07:25N 29°36' W 094°23'0 0.0
2018-Feb-17 06:58N 29°36' W 094°23'0 0.0
2018-Feb-17 06:30N 29°36' W 094°23'0 0.0
2018-Feb-17 06:00N 29°36' W 094°23'0 0.0
2018-Feb-17 05:30N 29°36' W 094°23'0 0.0
2018-Feb-17 04:58N 29°36' W 094°23'0 0.0
2018-Feb-17 04:29N 29°36' W 094°23'0 0.0
2018-Feb-17 03:58N 29°36' W 094°23'0 0.0
2018-Feb-17 03:30N 29°36' W 094°23'0 0.0
2018-Feb-17 03:00N 29°36' W 094°23'0 0.0
2018-Feb-17 02:28N 29°36' W 094°23'0 0.0
2018-Feb-17 01:58N 29°36' W 094°23'0 0.0
2018-Feb-17 01:30N 29°36' W 094°23'0 0.0
2018-Feb-17 00:59N 29°36' W 094°23'0 0.0
2018-Feb-17 00:27N 29°36' W 094°23'0 0.1
2018-Feb-16 23:54N 29°36' W 094°23'3 6.6
2018-Feb-16 23:30N 29°37' W 094°20'4 8.2
2018-Feb-16 23:00N 29°39' W 094°16'4 7.5
2018-Feb-16 22:30N 29°41' W 094°12'3 5.3
2018-Feb-16 22:00N 29°42' W 094°09'4 7.7
2018-Feb-16 21:30N 29°44' W 094°06'4 8.4
2018-Feb-16 21:00N 29°47' W 094°02'4 8.2
2018-Feb-16 20:30N 29°49' W 093°58'5 9.3
2018-Feb-16 20:00N 29°53' W 093°55'510.7
2018-Feb-16 19:30N 29°57' W 093°52'4 7.1
2018-Feb-16 19:00N 29°60' W 093°55'3 5.2
2018-Feb-16 18:30N 29°59' W 093°52'3 6.7
2018-Feb-16 18:00N 29°59' W 093°48'4 7.8
2018-Feb-16 17:30N 30°02' W 093°44'3 5.5
2018-Feb-16 17:00N 30°04' W 093°43'3 6.8
2018-Feb-16 16:30N 30°01' W 093°45'3 6.4
2018-Feb-16 16:00N 29°59' W 093°48'3 6.3
2018-Feb-16 15:30N 29°58' W 093°51'3 6.1
2018-Feb-16 15:00N 29°60' W 093°55'0 0.0
2018-Feb-16 14:30N 29°60' W 093°55'0 0.0
2018-Feb-16 14:00N 29°60' W 093°55'1 2.8
2018-Feb-16 13:30N 29°60' W 093°56'3 5.4
2018-Feb-16 13:00N 30°01' W 093°59'0 0.0
2018-Feb-16 12:30N 30°01' W 093°59'0 0.0
2018-Feb-16 11:58N 30°01' W 093°59'0 0.0
2018-Feb-16 11:30N 30°01' W 093°59'0 0.0
2018-Feb-16 10:55N 30°01' W 093°59'0 0.0
2018-Feb-16 10:30N 30°01' W 093°59'0 0.0
2018-Feb-16 09:59N 30°01' W 093°59'0 0.0
2018-Feb-16 09:30N 30°01' W 093°59'0 0.0
2018-Feb-16 09:00N 30°01' W 093°59'0 0.0
2018-Feb-16 08:30N 30°01' W 093°59'0 0.0
2018-Feb-16 07:58N 30°01' W 093°59'0 0.0
2018-Feb-16 07:30N 30°01' W 093°59'0 0.0
2018-Feb-16 07:00N 30°01' W 093°59'0 0.0
2018-Feb-16 06:30N 30°01' W 093°59'0 0.0
2018-Feb-16 06:00N 30°01' W 093°59'0 0.0
2018-Feb-16 05:30N 30°01' W 093°59'0 0.0
2018-Feb-16 04:59N 30°01' W 093°59'0 0.0
2018-Feb-16 04:30N 30°01' W 093°59'0 0.0
2018-Feb-16 04:00N 30°01' W 093°59'0 0.0
2018-Feb-16 03:28N 30°01' W 093°59'0 0.0
2018-Feb-16 03:00N 30°01' W 093°59'0 0.0
2018-Feb-16 02:30N 30°01' W 093°59'0 0.0
2018-Feb-16 02:00N 30°01' W 093°59'0 0.0
2018-Feb-16 01:27N 30°01' W 093°59'0 0.0
2018-Feb-16 00:59N 30°01' W 093°59'0 0.0
2018-Feb-16 00:30N 30°01' W 093°59'0 0.0
2018-Feb-16 00:00N 30°01' W 093°59'0 0.0
2018-Feb-15 23:30N 30°01' W 093°59'0 0.1
2018-Feb-15 23:00N 30°01' W 093°59'3 5.5
2018-Feb-15 22:30N 29°60' W 093°56'4 8.2
2018-Feb-15 22:01N 29°59' W 093°52'4 7.5
2018-Feb-15 21:30N 29°55' W 093°53'4 8.1
2018-Feb-15 21:00N 29°52' W 093°56'4 7.0
2018-Feb-15 20:30N 29°49' W 093°59'1 2.6
2018-Feb-15 20:00N 29°48' W 093°60'0 1.0
2018-Feb-15 19:31N 29°48' W 094°00'3 6.0
2018-Feb-15 19:00N 29°50' W 093°57'4 7.2
2018-Feb-15 18:30N 29°53' W 093°55'4 8.4
2018-Feb-15 18:00N 29°56' W 093°52'3 5.3
2018-Feb-15 17:30N 29°59' W 093°52'1 2.3
2018-Feb-15 17:00N 29°58' W 093°51'0 0.0
2018-Feb-15 16:30N 29°58' W 093°51'0 0.0
2018-Feb-15 16:00N 29°58' W 093°51'0 0.0
2018-Feb-15 15:30N 29°58' W 093°51'0 0.0
2018-Feb-15 15:00N 29°58' W 093°51'0 0.0
2018-Feb-15 14:30N 29°58' W 093°51'0 0.0
2018-Feb-15 14:00N 29°58' W 093°51'0 0.0
2018-Feb-15 13:30N 29°58' W 093°51'1 1.5
2018-Feb-15 13:01N 29°58' W 093°51'0 0.0
2018-Feb-15 12:30N 29°58' W 093°51'0 0.0
2018-Feb-15 12:00N 29°58' W 093°51'0 0.0
2018-Feb-15 11:30N 29°58' W 093°51'0 0.0
2018-Feb-15 11:00N 29°58' W 093°51'0 0.0
2018-Feb-15 10:30N 29°58' W 093°51'0 0.0
2018-Feb-15 10:00N 29°58' W 093°51'0 0.0
2018-Feb-15 09:29N 29°58' W 093°51'0 0.0
2018-Feb-15 09:00N 29°58' W 093°51'0 0.0
2018-Feb-15 08:30N 29°58' W 093°51'0 0.0
2018-Feb-15 08:00N 29°58' W 093°51'0 0.0
2018-Feb-15 07:30N 29°58' W 093°51'0 0.0
2018-Feb-15 07:00N 29°58' W 093°51'0 0.0
2018-Feb-15 06:30N 29°58' W 093°51'0 0.0
2018-Feb-15 06:00N 29°58' W 093°51'0 0.0
2018-Feb-15 05:30N 29°58' W 093°51'0 0.0
2018-Feb-15 05:00N 29°58' W 093°51'0 0.0
2018-Feb-15 04:30N 29°58' W 093°51'0 0.0
2018-Feb-15 04:00N 29°58' W 093°51'0 0.0
2018-Feb-15 03:30N 29°58' W 093°51'0 0.0
2018-Feb-15 03:00N 29°58' W 093°51'0 0.0
2018-Feb-15 02:30N 29°58' W 093°51'0 0.0
2018-Feb-15 02:00N 29°58' W 093°51'0 0.0
2018-Feb-15 01:30N 29°58' W 093°51'0 0.0
2018-Feb-15 01:00N 29°58' W 093°51'0 0.0
2018-Feb-15 00:30N 29°58' W 093°51'0 0.1
2018-Feb-15 00:00N 29°58' W 093°51'3 6.1
2018-Feb-14 23:31N 29°59' W 093°47'1 2.9
2018-Feb-14 23:00N 30°00' W 093°46'4 7.4
2018-Feb-14 22:30N 30°03' W 093°43'4 7.0
2018-Feb-14 22:00N 30°04' W 093°39'4 6.9
2018-Feb-14 21:29N 30°04' W 093°35'3 6.5
2018-Feb-14 21:00N 30°04' W 093°32'3 6.7
2018-Feb-14 20:30N 30°04' W 093°28'3 6.1
2018-Feb-14 20:00N 30°04' W 093°24'2 4.0
2018-Feb-14 19:30N 30°04' W 093°22'2 3.4
2018-Feb-14 18:59N 30°05' W 093°20'3 6.0
2018-Feb-14 18:30N 30°07' W 093°20'4 7.1
2018-Feb-14 18:00N 30°11' W 093°19'3 6.1
2018-Feb-14 17:30N 30°12' W 093°16'2 3.4
2018-Feb-14 17:01N 30°14' W 093°15'0 0.1
2018-Feb-14 16:30N 30°14' W 093°15'0 0.0
2018-Feb-14 16:00N 30°14' W 093°15'0 0.0
2018-Feb-14 15:30N 30°14' W 093°15'0 0.0
2018-Feb-14 15:00N 30°14' W 093°15'0 0.0
2018-Feb-14 14:30N 30°14' W 093°15'0 0.0
2018-Feb-14 14:00N 30°14' W 093°15'0 0.0
2018-Feb-14 13:30N 30°14' W 093°15'0 0.0
2018-Feb-14 13:00N 30°14' W 093°15'0 0.0
2018-Feb-14 12:30N 30°14' W 093°15'0 0.0
2018-Feb-14 12:00N 30°14' W 093°15'0 0.0
2018-Feb-14 11:30N 30°14' W 093°15'0 0.0
2018-Feb-14 11:00N 30°14' W 093°15'0 0.0
2018-Feb-14 10:30N 30°14' W 093°15'0 0.0
2018-Feb-14 10:00N 30°14' W 093°15'0 0.0
2018-Feb-14 09:30N 30°14' W 093°15'0 0.0
2018-Feb-14 09:00N 30°14' W 093°15'0 0.0
2018-Feb-14 08:30N 30°14' W 093°15'0 0.0
2018-Feb-14 08:00N 30°14' W 093°15'0 0.0
2018-Feb-14 07:30N 30°14' W 093°15'0 0.0
2018-Feb-14 07:00N 30°14' W 093°15'0 0.0
2018-Feb-14 06:30N 30°14' W 093°15'0 0.0
2018-Feb-14 06:00N 30°14' W 093°15'0 0.0
2018-Feb-14 05:30N 30°14' W 093°15'0 0.0
2018-Feb-14 05:00N 30°14' W 093°15'0 0.0
2018-Feb-14 04:30N 30°14' W 093°15'0 0.0
2018-Feb-14 04:00N 30°14' W 093°15'0 0.0
2018-Feb-14 03:30N 30°14' W 093°15'0 0.0
2018-Feb-14 03:00N 30°14' W 093°15'0 0.0
2018-Feb-14 02:30N 30°14' W 093°15'0 0.0
2018-Feb-14 02:00N 30°14' W 093°15'0 0.0
2018-Feb-14 01:30N 30°14' W 093°15'0 0.0
2018-Feb-14 01:00N 30°14' W 093°15'0 0.0
2018-Feb-14 00:30N 30°14' W 093°15'0 0.2
2018-Feb-14 00:00N 30°14' W 093°15'0 0.0
2018-Feb-13 23:30N 30°14' W 093°15'0 0.0
2018-Feb-13 23:00N 30°14' W 093°15'0 0.0
2018-Feb-13 22:30N 30°14' W 093°15'0 0.0
2018-Feb-13 22:00N 30°14' W 093°15'0 0.0
2018-Feb-13 21:30N 30°14' W 093°15'0 0.2
2018-Feb-13 21:00N 30°14' W 093°15'0 0.0
2018-Feb-13 20:30N 30°14' W 093°15'0 0.2
2018-Feb-13 20:00N 30°14' W 093°15'2 3.5
2018-Feb-13 19:30N 30°12' W 093°16'4 7.2
2018-Feb-13 19:00N 30°10' W 093°19'3 6.8
2018-Feb-13 18:30N 30°07' W 093°20'3 5.8
2018-Feb-13 18:00N 30°04' W 093°21'3 6.1
2018-Feb-13 17:30N 30°04' W 093°24'4 7.0
2018-Feb-13 17:00N 30°04' W 093°28'3 6.8
2018-Feb-13 16:30N 30°04' W 093°32'4 5.4
2018-Feb-13 15:50N 30°03' W 093°37'2 5.7
2018-Feb-13 15:25N 30°04' W 093°39'2 5.6
2018-Feb-13 15:00N 30°03' W 093°42'3 6.8
2018-Feb-13 14:30N 30°01' W 093°45'4 7.3
2018-Feb-13 14:00N 29°59' W 093°48'4 7.0
2018-Feb-13 13:30N 29°57' W 093°52'4 7.8
2018-Feb-13 13:00N 29°54' W 093°54'4 7.9
2018-Feb-13 12:30N 29°51' W 093°57'3 6.6
2018-Feb-13 12:00N 29°49' W 093°60'3 5.4
2018-Feb-13 11:30N 29°47' W 094°02'2 4.7
2018-Feb-13 11:00N 29°45' W 094°04'2 3.0
2018-Feb-13 10:30N 29°44' W 094°06'3 5.7
2018-Feb-13 10:00N 29°42' W 094°08'1 1.9
2018-Feb-13 09:29N 29°42' W 094°09'2 4.7
2018-Feb-13 09:00N 29°41' W 094°11'3 5.9
2018-Feb-13 08:30N 29°40' W 094°15'1 1.8
2018-Feb-13 08:00N 29°39' W 094°15'2 3.2
2018-Feb-13 07:30N 29°39' W 094°17'2 4.4
2018-Feb-13 07:00N 29°38' W 094°19'3 4.5
2018-Feb-13 06:23N 29°36' W 094°22'1 3.4
2018-Feb-13 06:00N 29°36' W 094°24'1 1.7
2018-Feb-13 05:13N 29°35' W 094°25'1 3.3
2018-Feb-13 04:57N 29°34' W 094°25'25 3.8
2018-Feb-12 22:24N 29°31' W 094°53'3 6.3
2018-Feb-12 22:00N 29°33' W 094°55'4 7.0
2018-Feb-12 21:29N 29°37' W 094°57'4 8.3
2018-Feb-12 21:00N 29°40' W 094°59'  
Track history (hours):
 
Tides and Currents Weather Stations Pressure Air Temp Water Temp Dewpoint Dewpoint Depression Visibility Wind Speed Wind Dir Waves Ship Positions

San Brendan

Owner: Buffalo Marine Service, Inc., Houston, TX. More information available from US FCC via Universal Licensing System and Coast Guard Vessel Documentation Center.

Last reported at 2018-Feb-22 16:57 UTC. Time now 2018-Feb-23 20:19 UTC.
Position N 29°32' W 094°29'.

Length 28 m; draft 3.3 m.

Type: Tug. MMSI: 367404910.

Date/timePositionNaut miles runAvg speedWind from/ knotsBaromVisibWave heightAir tempDewpointWater temp
2018-Feb-22 16:57N 29°32' W 094°29'3 2.7
2018-Feb-22 16:01N 29°34' W 094°27'1 7.8
2018-Feb-22 15:56N 29°34' W 094°26'2 5.2
2018-Feb-22 15:29N 29°36' W 094°24'3 5.3
2018-Feb-22 15:00N 29°37' W 094°22'0 0.0
2018-Feb-22 14:21N 29°37' W 094°22'0 0.0
2018-Feb-22 14:00N 29°37' W 094°22'0 0.0
2018-Feb-22 13:27N 29°37' W 094°22'0 0.0
2018-Feb-22 09:58N 29°37' W 094°22'0 0.0
2018-Feb-22 09:30N 29°37' W 094°22'0 0.0
2018-Feb-22 09:00N 29°37' W 094°22'0 0.0
2018-Feb-22 08:30N 29°37' W 094°22'0 0.0
2018-Feb-22 07:59N 29°37' W 094°22'0 0.0
2018-Feb-22 07:30N 29°37' W 094°22'0 0.0
2018-Feb-22 06:56N 29°37' W 094°22'0 0.0
2018-Feb-22 06:29N 29°37' W 094°22'0 0.0
2018-Feb-22 02:39N 29°37' W 094°22'0 0.1
2018-Feb-22 02:30N 29°37' W 094°22'0 0.0
2018-Feb-22 01:53N 29°37' W 094°22'0 0.0
2018-Feb-21 23:36N 29°37' W 094°22'0 0.0
2018-Feb-21 23:28N 29°37' W 094°22'0 0.0
2018-Feb-21 22:59N 29°37' W 094°22'1 1.2
2018-Feb-21 22:16N 29°37' W 094°21'0 0.0
2018-Feb-21 21:57N 29°37' W 094°21'0 0.1
2018-Feb-21 21:30N 29°37' W 094°21'0 0.0
2018-Feb-21 20:59N 29°37' W 094°21'0 0.0
2018-Feb-21 20:30N 29°37' W 094°21'0 0.0
2018-Feb-21 20:00N 29°37' W 094°21'0 0.0
2018-Feb-21 18:53N 29°37' W 094°21'0 0.0
2018-Feb-21 17:50N 29°37' W 094°21'0 0.1
2018-Feb-21 17:30N 29°37' W 094°21'1 1.9
2018-Feb-21 17:00N 29°37' W 094°20'3 4.9
2018-Feb-21 16:26N 29°39' W 094°17'1 3.4
2018-Feb-21 16:00N 29°39' W 094°15'3 5.7
2018-Feb-21 15:31N 29°41' W 094°12'3 5.8
2018-Feb-21 15:00N 29°42' W 094°09'1 1.7
2018-Feb-21 14:30N 29°42' W 094°08'3 5.1
2018-Feb-21 14:00N 29°44' W 094°06'3 5.4
2018-Feb-21 13:30N 29°45' W 094°04'2 4.9
2018-Feb-21 13:00N 29°47' W 094°02'3 5.3
2018-Feb-21 12:31N 29°49' W 093°60'1 1.2
2018-Feb-21 12:00N 29°49' W 093°59'0 0.0
2018-Feb-21 11:30N 29°49' W 093°59'0 0.0
2018-Feb-21 11:00N 29°49' W 093°59'0 0.0
2018-Feb-21 10:30N 29°49' W 093°59'0 0.0
2018-Feb-21 10:00N 29°49' W 093°59'0 0.0
2018-Feb-21 09:30N 29°49' W 093°59'0 0.0
2018-Feb-21 09:00N 29°49' W 093°59'0 0.0
2018-Feb-21 08:30N 29°49' W 093°59'0 0.0
2018-Feb-21 08:00N 29°49' W 093°59'0 0.0
2018-Feb-21 07:30N 29°49' W 093°59'0 0.0
2018-Feb-21 07:00N 29°49' W 093°59'0 0.0
2018-Feb-21 06:30N 29°49' W 093°59'0 0.0
2018-Feb-21 06:00N 29°49' W 093°59'0 0.0
2018-Feb-21 05:30N 29°49' W 093°59'0 0.0
2018-Feb-21 05:00N 29°49' W 093°59'0 0.0
2018-Feb-21 04:30N 29°49' W 093°59'0 0.0
2018-Feb-21 04:00N 29°49' W 093°59'0 0.0
2018-Feb-21 03:30N 29°49' W 093°59'0 0.4
2018-Feb-21 03:00N 29°49' W 093°59'2 5.0
2018-Feb-21 02:30N 29°51' W 093°57'4 7.3
2018-Feb-21 02:00N 29°54' W 093°54'4 7.1
2018-Feb-21 01:30N 29°57' W 093°52'3 5.9
2018-Feb-21 01:00N 29°59' W 093°49'3 6.6
2018-Feb-21 00:30N 30°00' W 093°46'3 6.3
2018-Feb-21 00:00N 30°03' W 093°44'2 4.2
2018-Feb-20 23:30N 30°04' W 093°41'3 6.1
2018-Feb-20 23:00N 30°04' W 093°38'4 7.0
2018-Feb-20 22:29N 30°04' W 093°34'4 7.2
2018-Feb-20 22:00N 30°04' W 093°30'3 7.0
2018-Feb-20 21:30N 30°04' W 093°26'3 5.9
2018-Feb-20 21:00N 30°04' W 093°22'3 5.1
2018-Feb-20 20:30N 30°05' W 093°20'2 4.9
2018-Feb-20 20:00N 30°08' W 093°20'2 4.9
2018-Feb-20 19:30N 30°10' W 093°19'0 0.4
2018-Feb-20 19:00N 30°10' W 093°19'3 6.6
2018-Feb-20 18:30N 30°06' W 093°20'2 4.4
2018-Feb-20 18:00N 30°04' W 093°21'1 1.7
2018-Feb-20 17:30N 30°04' W 093°21'2 4.8
2018-Feb-20 17:00N 30°04' W 093°24'3 6.1
2018-Feb-20 16:30N 30°04' W 093°28'3 6.9
2018-Feb-20 16:00N 30°04' W 093°32'4 7.0
2018-Feb-20 15:26N 30°04' W 093°36'4 7.3
2018-Feb-20 14:55N 30°04' W 093°40'3 7.2
2018-Feb-20 14:30N 30°03' W 093°44'4 7.2
2018-Feb-20 14:00N 29°60' W 093°46'4 7.3
2018-Feb-20 13:30N 29°59' W 093°50'2 3.8
2018-Feb-20 13:00N 29°57' W 093°52'0 0.0
2018-Feb-20 12:30N 29°57' W 093°52'0 0.0
2018-Feb-20 12:00N 29°57' W 093°52'0 0.0
2018-Feb-20 11:30N 29°57' W 093°52'0 0.0
2018-Feb-20 11:00N 29°57' W 093°52'0 0.0
2018-Feb-20 10:30N 29°57' W 093°52'0 0.0
2018-Feb-20 10:00N 29°57' W 093°52'0 0.0
2018-Feb-20 09:29N 29°57' W 093°52'0 0.0
2018-Feb-20 09:00N 29°57' W 093°52'0 0.0
2018-Feb-20 08:31N 29°57' W 093°52'0 0.0
2018-Feb-20 08:00N 29°57' W 093°52'0 0.0
2018-Feb-20 07:28N 29°57' W 093°52'0 0.0
2018-Feb-20 07:00N 29°57' W 093°52'0 0.0
2018-Feb-20 06:29N 29°57' W 093°52'2 3.8
2018-Feb-20 06:00N 29°56' W 093°53'4 7.8
2018-Feb-20 05:30N 29°53' W 093°55'3 6.7
2018-Feb-20 05:00N 29°50' W 093°57'2 4.6
2018-Feb-20 04:30N 29°49' W 093°60'3 5.0
2018-Feb-20 04:00N 29°47' W 094°02'2 4.3
2018-Feb-20 03:30N 29°45' W 094°04'2 4.4
2018-Feb-20 03:00N 29°44' W 094°06'2 4.4
2018-Feb-20 02:31N 29°43' W 094°08'2 4.6
2018-Feb-20 02:00N 29°41' W 094°10'2 4.9
2018-Feb-20 01:30N 29°41' W 094°12'3 5.3
2018-Feb-20 01:00N 29°39' W 094°15'2 4.7
2018-Feb-20 00:30N 29°38' W 094°17'3 6.2
2018-Feb-20 00:00N 29°37' W 094°21'3 6.0
2018-Feb-19 23:30N 29°36' W 094°24'9 5.6
2018-Feb-19 21:51N 29°30' W 094°32'0 0.0
2018-Feb-19 21:29N 29°30' W 094°32'2 1.3
2018-Feb-19 19:37N 29°29' W 094°35'0 0.0
2018-Feb-19 19:29N 29°29' W 094°35'0 0.0
2018-Feb-19 18:12N 29°29' W 094°35'0 0.0
2018-Feb-19 18:00N 29°29' W 094°35'1 1.9
2018-Feb-19 17:28N 29°29' W 094°36'0 0.0
2018-Feb-19 16:59N 29°29' W 094°36'0 0.0
2018-Feb-19 16:30N 29°29' W 094°36'1 2.0
2018-Feb-19 15:54N 29°29' W 094°37'1 2.1
2018-Feb-19 15:27N 29°28' W 094°38'0 0.0
2018-Feb-19 14:47N 29°28' W 094°38'0 1.5
2018-Feb-19 14:30N 29°28' W 094°39'3 6.1
2018-Feb-19 14:00N 29°27' W 094°42'3 5.4
2018-Feb-19 13:29N 29°25' W 094°44'3 6.2
2018-Feb-19 12:59N 29°23' W 094°47'3 7.1
2018-Feb-19 12:30N 29°19' W 094°47'0 0.1
2018-Feb-19 11:02N 29°19' W 094°47'0 0.0
2018-Feb-19 10:55N 29°19' W 094°47'0 0.0
2018-Feb-19 10:30N 29°19' W 094°47'0 0.0
2018-Feb-19 09:48N 29°19' W 094°47'0 0.0
2018-Feb-19 09:30N 29°19' W 094°47'0 0.0
2018-Feb-19 09:00N 29°19' W 094°47'0 0.2
2018-Feb-19 08:29N 29°19' W 094°47'0 0.0
2018-Feb-19 07:57N 29°19' W 094°47'0 0.0
2018-Feb-19 07:30N 29°19' W 094°47'0 0.0
2018-Feb-19 06:53N 29°19' W 094°47'0 0.0
2018-Feb-19 06:24N 29°19' W 094°47'0 0.0
2018-Feb-19 05:44N 29°19' W 094°47'0 0.0
2018-Feb-19 05:30N 29°19' W 094°47'0 0.0
2018-Feb-19 05:00N 29°19' W 094°47'6 0.7
2018-Feb-18 19:41N 29°22' W 094°53'6 5.3
2018-Feb-18 18:30N 29°20' W 094°47'1 1.3
2018-Feb-18 17:57N 29°19' W 094°47'0 0.0
2018-Feb-18 17:25N 29°19' W 094°47'0 0.0
2018-Feb-18 16:57N 29°19' W 094°47'0 0.0
2018-Feb-18 16:24N 29°19' W 094°47'0 0.0
2018-Feb-18 15:44N 29°19' W 094°47'0 0.0
2018-Feb-18 15:21N 29°19' W 094°47'0 0.0
2018-Feb-18 14:57N 29°19' W 094°47'0 0.0
2018-Feb-18 14:30N 29°19' W 094°47'0 0.0
2018-Feb-18 07:35N 29°19' W 094°47'0 0.0
2018-Feb-18 07:29N 29°19' W 094°47'0 0.0
2018-Feb-18 01:17N 29°19' W 094°47'1 1.7
2018-Feb-18 00:36N 29°20' W 094°47'1 7.7
2018-Feb-18 00:27N 29°21' W 094°47'8 6.0
2018-Feb-17 23:03N 29°27' W 094°41'0 2.5
2018-Feb-17 22:55N 29°27' W 094°40'1 2.3
2018-Feb-17 22:30N 29°28' W 094°39'1 2.3
2018-Feb-17 21:59N 29°28' W 094°38'10 3.3
2018-Feb-17 19:02N 29°33' W 094°28'3 0.8
2018-Feb-17 15:39N 29°34' W 094°25'1 4.2
2018-Feb-17 15:30N 29°35' W 094°25'2 4.5
2018-Feb-17 15:00N 29°36' W 094°23'0 0.0
2018-Feb-17 14:30N 29°36' W 094°23'0 0.0
2018-Feb-17 14:00N 29°36' W 094°23'0 0.0
2018-Feb-17 13:29N 29°36' W 094°23'0 0.0
2018-Feb-17 12:59N 29°36' W 094°23'0 0.1
2018-Feb-17 12:07N 29°36' W 094°23'0 0.0
2018-Feb-17 11:57N 29°36' W 094°23'0 0.0
2018-Feb-17 11:30N 29°36' W 094°23'0 0.0
2018-Feb-17 11:00N 29°36' W 094°23'0 0.0
2018-Feb-17 10:26N 29°36' W 094°23'0 0.0
2018-Feb-17 10:00N 29°36' W 094°23'0 0.0
2018-Feb-17 09:30N 29°36' W 094°23'0 0.0
2018-Feb-17 09:00N 29°36' W 094°23'0 0.0
2018-Feb-17 08:30N 29°36' W 094°23'0 0.0
2018-Feb-17 07:59N 29°36' W 094°23'0 0.0
2018-Feb-17 07:25N 29°36' W 094°23'0 0.0
2018-Feb-17 06:58N 29°36' W 094°23'0 0.0
2018-Feb-17 06:30N 29°36' W 094°23'0 0.0
2018-Feb-17 06:00N 29°36' W 094°23'0 0.0
2018-Feb-17 05:30N 29°36' W 094°23'0 0.0
2018-Feb-17 04:58N 29°36' W 094°23'0 0.0
2018-Feb-17 04:29N 29°36' W 094°23'0 0.0
2018-Feb-17 03:58N 29°36' W 094°23'0 0.0
2018-Feb-17 03:30N 29°36' W 094°23'0 0.0
2018-Feb-17 03:00N 29°36' W 094°23'0 0.0
2018-Feb-17 02:28N 29°36' W 094°23'0 0.0
2018-Feb-17 01:58N 29°36' W 094°23'0 0.0
2018-Feb-17 01:30N 29°36' W 094°23'0 0.0
2018-Feb-17 00:59N 29°36' W 094°23'0 0.0
2018-Feb-17 00:27N 29°36' W 094°23'0 0.1
2018-Feb-16 23:54N 29°36' W 094°23'3 6.6
2018-Feb-16 23:30N 29°37' W 094°20'4 8.2
2018-Feb-16 23:00N 29°39' W 094°16'4 7.5
2018-Feb-16 22:30N 29°41' W 094°12'3 5.3
2018-Feb-16 22:00N 29°42' W 094°09'4 7.7
2018-Feb-16 21:30N 29°44' W 094°06'4 8.4
2018-Feb-16 21:00N 29°47' W 094°02'4 8.2
2018-Feb-16 20:30N 29°49' W 093°58'5 9.3
2018-Feb-16 20:00N 29°53' W 093°55'510.7
2018-Feb-16 19:30N 29°57' W 093°52'4 7.1
2018-Feb-16 19:00N 29°60' W 093°55'3 5.2
2018-Feb-16 18:30N 29°59' W 093°52'3 6.7
2018-Feb-16 18:00N 29°59' W 093°48'4 7.8
2018-Feb-16 17:30N 30°02' W 093°44'3 5.5
2018-Feb-16 17:00N 30°04' W 093°43'3 6.8
2018-Feb-16 16:30N 30°01' W 093°45'3 6.4
2018-Feb-16 16:00N 29°59' W 093°48'3 6.3
2018-Feb-16 15:30N 29°58' W 093°51'3 6.1
2018-Feb-16 15:00N 29°60' W 093°55'0 0.0
2018-Feb-16 14:30N 29°60' W 093°55'0 0.0
2018-Feb-16 14:00N 29°60' W 093°55'1 2.8
2018-Feb-16 13:30N 29°60' W 093°56'3 5.4
2018-Feb-16 13:00N 30°01' W 093°59'0 0.0
2018-Feb-16 12:30N 30°01' W 093°59'0 0.0
2018-Feb-16 11:58N 30°01' W 093°59'0 0.0
2018-Feb-16 11:30N 30°01' W 093°59'0 0.0
2018-Feb-16 10:55N 30°01' W 093°59'0 0.0
2018-Feb-16 10:30N 30°01' W 093°59'0 0.0
2018-Feb-16 09:59N 30°01' W 093°59'0 0.0
2018-Feb-16 09:30N 30°01' W 093°59'0 0.0
2018-Feb-16 09:00N 30°01' W 093°59'0 0.0
2018-Feb-16 08:30N 30°01' W 093°59'0 0.0
2018-Feb-16 07:58N 30°01' W 093°59'0 0.0
2018-Feb-16 07:30N 30°01' W 093°59'0 0.0
2018-Feb-16 07:00N 30°01' W 093°59'0 0.0
2018-Feb-16 06:30N 30°01' W 093°59'0 0.0
2018-Feb-16 06:00N 30°01' W 093°59'0 0.0
2018-Feb-16 05:30N 30°01' W 093°59'0 0.0
2018-Feb-16 04:59N 30°01' W 093°59'0 0.0
2018-Feb-16 04:30N 30°01' W 093°59'0 0.0
2018-Feb-16 04:00N 30°01' W 093°59'0 0.0
2018-Feb-16 03:28N 30°01' W 093°59'0 0.0
2018-Feb-16 03:00N 30°01' W 093°59'0 0.0
2018-Feb-16 02:30N 30°01' W 093°59'0 0.0
2018-Feb-16 02:00N 30°01' W 093°59'0 0.0
2018-Feb-16 01:27N 30°01' W 093°59'0 0.0
2018-Feb-16 00:59N 30°01' W 093°59'0 0.0
2018-Feb-16 00:30N 30°01' W 093°59'0 0.0
2018-Feb-16 00:00N 30°01' W 093°59'0 0.0
2018-Feb-15 23:30N 30°01' W 093°59'0 0.1
2018-Feb-15 23:00N 30°01' W 093°59'3 5.5
2018-Feb-15 22:30N 29°60' W 093°56'4 8.2
2018-Feb-15 22:01N 29°59' W 093°52'4 7.5
2018-Feb-15 21:30N 29°55' W 093°53'4 8.1
2018-Feb-15 21:00N 29°52' W 093°56'4 7.0
2018-Feb-15 20:30N 29°49' W 093°59'1 2.6
2018-Feb-15 20:00N 29°48' W 093°60'0 1.0
2018-Feb-15 19:31N 29°48' W 094°00'3 6.0
2018-Feb-15 19:00N 29°50' W 093°57'4 7.2
2018-Feb-15 18:30N 29°53' W 093°55'4 8.4
2018-Feb-15 18:00N 29°56' W 093°52'3 5.3
2018-Feb-15 17:30N 29°59' W 093°52'1 2.3
2018-Feb-15 17:00N 29°58' W 093°51'0 0.0
2018-Feb-15 16:30N 29°58' W 093°51'0 0.0
2018-Feb-15 16:00N 29°58' W 093°51'0 0.0
2018-Feb-15 15:30N 29°58' W 093°51'0 0.0
2018-Feb-15 15:00N 29°58' W 093°51'0 0.0
2018-Feb-15 14:30N 29°58' W 093°51'0 0.0
2018-Feb-15 14:00N 29°58' W 093°51'0 0.0
2018-Feb-15 13:30N 29°58' W 093°51'1 1.5
2018-Feb-15 13:01N 29°58' W 093°51'0 0.0
2018-Feb-15 12:30N 29°58' W 093°51'0 0.0
2018-Feb-15 12:00N 29°58' W 093°51'0 0.0
2018-Feb-15 11:30N 29°58' W 093°51'0 0.0
2018-Feb-15 11:00N 29°58' W 093°51'0 0.0
2018-Feb-15 10:30N 29°58' W 093°51'0 0.0
2018-Feb-15 10:00N 29°58' W 093°51'0 0.0
2018-Feb-15 09:29N 29°58' W 093°51'0 0.0
2018-Feb-15 09:00N 29°58' W 093°51'0 0.0
2018-Feb-15 08:30N 29°58' W 093°51'0 0.0
2018-Feb-15 08:00N 29°58' W 093°51'0 0.0
2018-Feb-15 07:30N 29°58' W 093°51'0 0.0
2018-Feb-15 07:00N 29°58' W 093°51'0 0.0
2018-Feb-15 06:30N 29°58' W 093°51'0 0.0
2018-Feb-15 06:00N 29°58' W 093°51'0 0.0
2018-Feb-15 05:30N 29°58' W 093°51'0 0.0
2018-Feb-15 05:00N 29°58' W 093°51'0 0.0
2018-Feb-15 04:30N 29°58' W 093°51'0 0.0
2018-Feb-15 04:00N 29°58' W 093°51'0 0.0
2018-Feb-15 03:30N 29°58' W 093°51'0 0.0
2018-Feb-15 03:00N 29°58' W 093°51'0 0.0
2018-Feb-15 02:30N 29°58' W 093°51'0 0.0
2018-Feb-15 02:00N 29°58' W 093°51'0 0.0
2018-Feb-15 01:30N 29°58' W 093°51'0 0.0
2018-Feb-15 01:00N 29°58' W 093°51'0 0.0
2018-Feb-15 00:30N 29°58' W 093°51'0 0.1
2018-Feb-15 00:00N 29°58' W 093°51'3 6.1
2018-Feb-14 23:31N 29°59' W 093°47'1 2.9
2018-Feb-14 23:00N 30°00' W 093°46'4 7.4
2018-Feb-14 22:30N 30°03' W 093°43'4 7.0
2018-Feb-14 22:00N 30°04' W 093°39'4 6.9
2018-Feb-14 21:29N 30°04' W 093°35'3 6.5
2018-Feb-14 21:00N 30°04' W 093°32'3 6.7
2018-Feb-14 20:30N 30°04' W 093°28'3 6.1
2018-Feb-14 20:00N 30°04' W 093°24'2 4.0
2018-Feb-14 19:30N 30°04' W 093°22'2 3.4
2018-Feb-14 18:59N 30°05' W 093°20'3 6.0
2018-Feb-14 18:30N 30°07' W 093°20'4 7.1
2018-Feb-14 18:00N 30°11' W 093°19'3 6.1
2018-Feb-14 17:30N 30°12' W 093°16'2 3.4
2018-Feb-14 17:01N 30°14' W 093°15'0 0.1
2018-Feb-14 16:30N 30°14' W 093°15'0 0.0
2018-Feb-14 16:00N 30°14' W 093°15'0 0.0
2018-Feb-14 15:30N 30°14' W 093°15'0 0.0
2018-Feb-14 15:00N 30°14' W 093°15'0 0.0
2018-Feb-14 14:30N 30°14' W 093°15'0 0.0
2018-Feb-14 14:00N 30°14' W 093°15'0 0.0
2018-Feb-14 13:30N 30°14' W 093°15'0 0.0
2018-Feb-14 13:00N 30°14' W 093°15'0 0.0
2018-Feb-14 12:30N 30°14' W 093°15'0 0.0
2018-Feb-14 12:00N 30°14' W 093°15'0 0.0
2018-Feb-14 11:30N 30°14' W 093°15'0 0.0
2018-Feb-14 11:00N 30°14' W 093°15'0 0.0
2018-Feb-14 10:30N 30°14' W 093°15'0 0.0
2018-Feb-14 10:00N 30°14' W 093°15'0 0.0
2018-Feb-14 09:30N 30°14' W 093°15'0 0.0
2018-Feb-14 09:00N 30°14' W 093°15'0 0.0
2018-Feb-14 08:30N 30°14' W 093°15'0 0.0
2018-Feb-14 08:00N 30°14' W 093°15'0 0.0
2018-Feb-14 07:30N 30°14' W 093°15'0 0.0
2018-Feb-14 07:00N 30°14' W 093°15'0 0.0
2018-Feb-14 06:30N 30°14' W 093°15'0 0.0
2018-Feb-14 06:00N 30°14' W 093°15'0 0.0
2018-Feb-14 05:30N 30°14' W 093°15'0 0.0
2018-Feb-14 05:00N 30°14' W 093°15'0 0.0
2018-Feb-14 04:30N 30°14' W 093°15'0 0.0
2018-Feb-14 04:00N 30°14' W 093°15'0 0.0
2018-Feb-14 03:30N 30°14' W 093°15'0 0.0
2018-Feb-14 03:00N 30°14' W 093°15'0 0.0
2018-Feb-14 02:30N 30°14' W 093°15'0 0.0
2018-Feb-14 02:00N 30°14' W 093°15'0 0.0
2018-Feb-14 01:30N 30°14' W 093°15'0 0.0
2018-Feb-14 01:00N 30°14' W 093°15'0 0.0
2018-Feb-14 00:30N 30°14' W 093°15'0 0.2
2018-Feb-14 00:00N 30°14' W 093°15'0 0.0
2018-Feb-13 23:30N 30°14' W 093°15'0 0.0
2018-Feb-13 23:00N 30°14' W 093°15'0 0.0
2018-Feb-13 22:30N 30°14' W 093°15'0 0.0
2018-Feb-13 22:00N 30°14' W 093°15'0 0.0
2018-Feb-13 21:30N 30°14' W 093°15'0 0.2
2018-Feb-13 21:00N 30°14' W 093°15'0 0.0
2018-Feb-13 20:30N 30°14' W 093°15'0 0.2
2018-Feb-13 20:00N 30°14' W 093°15'2 3.5
2018-Feb-13 19:30N 30°12' W 093°16'4 7.2
2018-Feb-13 19:00N 30°10' W 093°19'3 6.8
2018-Feb-13 18:30N 30°07' W 093°20'3 5.8
2018-Feb-13 18:00N 30°04' W 093°21'3 6.1
2018-Feb-13 17:30N 30°04' W 093°24'4 7.0
2018-Feb-13 17:00N 30°04' W 093°28'3 6.8
2018-Feb-13 16:30N 30°04' W 093°32'4 5.4
2018-Feb-13 15:50N 30°03' W 093°37'2 5.7
2018-Feb-13 15:25N 30°04' W 093°39'2 5.6
2018-Feb-13 15:00N 30°03' W 093°42'3 6.8
2018-Feb-13 14:30N 30°01' W 093°45'4 7.3
2018-Feb-13 14:00N 29°59' W 093°48'4 7.0
2018-Feb-13 13:30N 29°57' W 093°52'4 7.8
2018-Feb-13 13:00N 29°54' W 093°54'4 7.9
2018-Feb-13 12:30N 29°51' W 093°57'3 6.6
2018-Feb-13 12:00N 29°49' W 093°60'3 5.4
2018-Feb-13 11:30N 29°47' W 094°02'2 4.7
2018-Feb-13 11:00N 29°45' W 094°04'2 3.0
2018-Feb-13 10:30N 29°44' W 094°06'3 5.7
2018-Feb-13 10:00N 29°42' W 094°08'1 1.9
2018-Feb-13 09:29N 29°42' W 094°09'2 4.7
2018-Feb-13 09:00N 29°41' W 094°11'3 5.9
2018-Feb-13 08:30N 29°40' W 094°15'1 1.8
2018-Feb-13 08:00N 29°39' W 094°15'2 3.2
2018-Feb-13 07:30N 29°39' W 094°17'2 4.4
2018-Feb-13 07:00N 29°38' W 094°19'3 4.5
2018-Feb-13 06:23N 29°36' W 094°22'1 3.4
2018-Feb-13 06:00N 29°36' W 094°24'1 1.7
2018-Feb-13 05:13N 29°35' W 094°25'1 3.3
2018-Feb-13 04:57N 29°34' W 094°25'25 3.8
2018-Feb-12 22:24N 29°31' W 094°53'3 6.3
2018-Feb-12 22:00N 29°33' W 094°55'4 7.0
2018-Feb-12 21:29N 29°37' W 094°57'4 8.3
2018-Feb-12 21:00N 29°40' W 094°59'  

Dump ship's entire track history